createdAt,value
2022-09-20T00:01:24.518Z,11.10
2022-09-20T00:03:54.822Z,11.00
2022-09-20T00:06:25.566Z,11.00
2022-09-20T00:08:53.136Z,11.00
2022-09-20T00:11:22.896Z,11.10
2022-09-20T00:13:51.772Z,11.20
2022-09-20T00:16:22.689Z,11.20
2022-09-20T00:18:52.295Z,11.20
2022-09-20T00:21:22.466Z,11.20
2022-09-20T00:23:50.487Z,11.30
2022-09-20T00:26:17.757Z,11.20
2022-09-20T00:28:46.937Z,11.30
2022-09-20T00:31:15.097Z,11.30
2022-09-20T00:34:01.400Z,11.30
2022-09-20T00:36:29.121Z,11.30
2022-09-20T00:38:58.060Z,11.30
2022-09-20T00:41:25.656Z,11.30
2022-09-20T00:43:53.604Z,11.30
2022-09-20T00:46:23.680Z,11.20
2022-09-20T00:48:59.682Z,11.20
2022-09-20T00:51:33.706Z,11.20
2022-09-20T00:54:03.803Z,11.20
2022-09-20T00:56:38.920Z,11.20
2022-09-20T00:59:25.452Z,11.20
2022-09-20T01:01:57.434Z,11.20
2022-09-20T01:04:27.505Z,11.20
2022-09-20T01:07:00.873Z,11.20
2022-09-20T01:09:28.267Z,11.20
2022-09-20T01:11:57.106Z,11.20
2022-09-20T01:14:26.298Z,11.10
2022-09-20T01:16:57.536Z,11.20
2022-09-20T01:19:43.343Z,11.20
2022-09-20T01:22:26.727Z,11.20
2022-09-20T01:25:15.838Z,11.20
2022-09-20T01:27:48.611Z,11.10
2022-09-20T01:30:25.179Z,11.20
2022-09-20T01:33:29.938Z,11.10
2022-09-20T01:36:03.347Z,11.20
2022-09-20T01:38:40.101Z,11.20
2022-09-20T01:41:23.428Z,11.20
2022-09-20T01:44:13.999Z,11.10
2022-09-20T01:46:43.399Z,11.10
2022-09-20T01:49:43.971Z,11.10
2022-09-20T01:52:38.567Z,11.10
2022-09-20T01:55:11.714Z,11.10
2022-09-20T01:57:46.167Z,11.10
2022-09-20T02:00:26.194Z,11.20
2022-09-20T02:03:02.655Z,11.10
2022-09-20T02:06:07.063Z,11.10
2022-09-20T02:08:46.251Z,11.10
2022-09-20T02:11:18.208Z,11.10
2022-09-20T02:13:54.211Z,11.10
2022-09-20T02:16:48.375Z,11.10
2022-09-20T02:19:34.279Z,11.10
2022-09-20T02:22:26.651Z,11.10
2022-09-20T02:25:08.166Z,11.00
2022-09-20T02:27:53.915Z,11.00
2022-09-20T02:30:46.840Z,11.00
2022-09-20T02:33:35.318Z,10.90
2022-09-20T02:36:08.500Z,11.00
2022-09-20T02:38:44.742Z,10.90
2022-09-20T02:41:39.494Z,10.90
2022-09-20T02:44:28.817Z,10.90
2022-09-20T02:47:16.377Z,10.90
2022-09-20T02:50:05.247Z,10.90
2022-09-20T02:53:02.405Z,10.90
2022-09-20T02:55:43.505Z,10.80
2022-09-20T02:58:33.207Z,10.80
2022-09-20T03:01:11.987Z,10.80
2022-09-20T03:03:56.948Z,10.80
2022-09-20T03:06:35.751Z,10.80
2022-09-20T03:09:23.298Z,10.80
2022-09-20T03:12:16.581Z,10.80
2022-09-20T03:14:59.257Z,10.80
2022-09-20T03:17:51.367Z,10.90
2022-09-20T03:20:34.799Z,10.90
2022-09-20T03:23:41.738Z,10.90
2022-09-20T03:26:50.991Z,10.90
2022-09-20T03:29:41.349Z,10.90
2022-09-20T03:32:26.606Z,10.90
2022-09-20T03:34:57.079Z,10.90
2022-09-20T03:37:55.970Z,10.80
2022-09-20T03:40:46.347Z,10.90
2022-09-20T03:43:32.177Z,10.90
2022-09-20T03:46:21.688Z,10.90
2022-09-20T03:49:26.628Z,10.90
2022-09-20T03:52:24.287Z,10.90
2022-09-20T03:55:06.621Z,10.90
2022-09-20T03:57:52.197Z,10.90
2022-09-20T04:00:23.531Z,10.80
2022-09-20T04:03:16.057Z,10.80
2022-09-20T04:06:20.998Z,10.80
2022-09-20T04:08:53.875Z,10.90
2022-09-20T04:11:45.712Z,10.90
2022-09-20T04:14:31.557Z,10.90
2022-09-20T04:17:02.062Z,10.80
2022-09-20T04:19:33.323Z,10.80
2022-09-20T04:22:01.963Z,10.80
2022-09-20T04:24:38.353Z,10.80
2022-09-20T04:27:16.846Z,10.80
2022-09-20T04:30:07.221Z,10.80
2022-09-20T04:32:48.484Z,10.80
2022-09-20T04:35:51.506Z,10.80
2022-09-20T04:38:20.816Z,10.80
2022-09-20T04:41:06.125Z,10.80
2022-09-20T04:43:51.152Z,10.80
2022-09-20T04:46:39.151Z,10.80
2022-09-20T04:49:52.586Z,10.80
2022-09-20T04:52:38.354Z,10.80
2022-09-20T04:55:44.731Z,10.80
2022-09-20T04:58:46.892Z,10.80
2022-09-20T05:01:30.379Z,10.70
2022-09-20T05:04:08.431Z,10.70
2022-09-20T05:06:57.438Z,10.70
2022-09-20T05:09:49.213Z,10.70
2022-09-20T05:12:41.142Z,10.70
2022-09-20T05:15:35.212Z,10.70
2022-09-20T05:18:33.003Z,10.70
2022-09-20T05:21:03.548Z,10.70
2022-09-20T05:23:33.687Z,10.70
2022-09-20T05:26:09.800Z,10.70
2022-09-20T05:28:56.984Z,10.70
2022-09-20T05:31:45.908Z,10.80
2022-09-20T05:34:34.717Z,10.80
2022-09-20T05:37:24.103Z,10.80
2022-09-20T05:39:57.253Z,10.80
2022-09-20T05:42:42.308Z,10.80
2022-09-20T05:45:25.680Z,10.80
2022-09-20T05:48:13.835Z,10.80
2022-09-20T05:51:06.009Z,10.90
2022-09-20T05:54:18.035Z,10.90
2022-09-20T05:56:56.162Z,10.90
2022-09-20T05:59:48.032Z,11.00
2022-09-20T06:02:33.521Z,11.10
2022-09-20T06:05:10.747Z,11.10
2022-09-20T06:07:46.138Z,11.20
2022-09-20T06:10:26.094Z,11.20
2022-09-20T06:13:20.682Z,11.20
2022-09-20T06:16:11.605Z,11.30
2022-09-20T06:18:58.108Z,11.40
2022-09-20T06:21:41.828Z,11.50
2022-09-20T06:24:27.318Z,11.50
2022-09-20T06:26:56.887Z,11.50
2022-09-20T06:29:35.105Z,11.30
2022-09-20T06:32:02.509Z,11.20
2022-09-20T06:34:30.376Z,11.00
2022-09-20T06:37:39.161Z,10.90
2022-09-20T06:40:35.503Z,10.90
2022-09-20T06:43:03.982Z,11.10
2022-09-20T06:45:32.119Z,11.40
2022-09-20T06:48:00.515Z,11.50
2022-09-20T06:50:27.837Z,11.60
2022-09-20T06:52:55.591Z,11.60
2022-09-20T06:55:29.532Z,11.60
2022-09-20T06:57:57.217Z,11.60
2022-09-20T07:00:24.525Z,11.90
2022-09-20T07:02:51.772Z,12.30
2022-09-20T07:05:21.888Z,12.80
2022-09-20T07:07:49.129Z,13.60
2022-09-20T07:10:16.871Z,14.40
2022-09-20T07:12:44.175Z,15.10
2022-09-20T07:15:12.108Z,15.30
2022-09-20T07:17:39.367Z,15.10
2022-09-20T07:20:06.898Z,15.00
2022-09-20T07:22:34.299Z,15.10
2022-09-20T07:25:02.379Z,15.10
2022-09-20T07:27:30.039Z,15.00
2022-09-20T07:29:57.326Z,15.20
2022-09-20T07:32:24.593Z,15.50
2022-09-20T07:34:51.921Z,15.80
2022-09-20T07:37:19.388Z,16.00
2022-09-20T07:39:46.726Z,16.00
2022-09-20T07:42:14.442Z,15.70
2022-09-20T07:44:43.307Z,15.70
2022-09-20T07:47:11.241Z,15.50
2022-09-20T07:49:38.647Z,15.10
2022-09-20T07:52:05.991Z,14.80
2022-09-20T07:54:33.616Z,16.20
2022-09-20T07:57:02.938Z,19.00
2022-09-20T07:59:30.218Z,21.30
2022-09-20T08:02:00.479Z,22.80
2022-09-20T08:04:27.872Z,23.60
2022-09-20T08:06:55.161Z,23.10
2022-09-20T08:09:22.396Z,23.90
2022-09-20T08:11:50.146Z,23.70
2022-09-20T08:14:18.677Z,22.80
2022-09-20T08:16:48.278Z,21.60
2022-09-20T08:19:21.079Z,22.90
2022-09-20T08:21:49.872Z,24.50
2022-09-20T08:24:17.459Z,25.70
2022-09-20T08:26:44.913Z,26.50
2022-09-20T08:29:14.968Z,26.70
2022-09-20T08:31:42.649Z,27.20
2022-09-20T08:34:12.658Z,27.40
2022-09-20T08:36:42.670Z,27.60
2022-09-20T08:42:12.782Z,29.20
2022-09-20T08:44:59.264Z,28.80
2022-09-20T08:47:33.152Z,29.00
2022-09-20T08:50:09.225Z,29.60
2022-09-20T08:52:39.979Z,29.10
2022-09-20T08:55:16.642Z,28.10
2022-09-20T08:57:48.995Z,27.40
2022-09-20T09:00:19.825Z,26.90
2022-09-20T09:02:47.271Z,27.70
2022-09-20T09:05:34.816Z,29.00
2022-09-20T09:08:16.463Z,29.20
2022-09-20T09:10:54.041Z,27.00
2022-09-20T09:13:56.361Z,24.10
2022-09-20T09:16:34.450Z,22.20
2022-09-20T09:19:33.958Z,20.80
2022-09-20T09:22:04.292Z,19.50
2022-09-20T09:24:31.746Z,18.90
2022-09-20T09:27:28.377Z,18.20
2022-09-20T09:29:56.532Z,17.40
2022-09-20T09:32:32.787Z,17.20
2022-09-20T09:35:23.916Z,17.00
2022-09-20T09:38:03.095Z,16.70
2022-09-20T09:40:32.317Z,16.10
2022-09-20T09:43:04.117Z,14.80
2022-09-20T09:45:38.606Z,13.80
2022-09-20T09:48:21.209Z,13.30
2022-09-20T09:50:48.729Z,13.10
2022-09-20T09:53:24.725Z,13.30
2022-09-20T09:56:21.726Z,13.40
2022-09-20T09:59:08.227Z,13.60
2022-09-20T10:02:02.527Z,13.70
2022-09-20T10:05:01.991Z,13.80
2022-09-20T10:07:49.819Z,14.10
2022-09-20T10:10:22.560Z,14.30
2022-09-20T10:13:14.892Z,14.60
2022-09-20T10:15:53.444Z,15.00
2022-09-20T10:18:45.743Z,15.30
2022-09-20T10:21:31.773Z,15.50
2022-09-20T10:24:30.934Z,16.00
2022-09-20T10:27:08.790Z,16.20
2022-09-20T10:29:47.638Z,16.40
2022-09-20T10:32:23.174Z,16.70
2022-09-20T10:34:56.631Z,18.70
2022-09-20T10:37:23.895Z,20.50
2022-09-20T10:40:20.357Z,22.30
2022-09-20T10:43:09.714Z,20.50
2022-09-20T10:46:27.511Z,19.80
2022-09-20T10:48:52.363Z,19.70
2022-09-20T10:51:39.797Z,20.00
2022-09-20T10:54:15.962Z,20.40
2022-09-20T10:56:47.115Z,20.40
2022-09-20T10:59:43.685Z,20.10
2022-09-20T11:02:11.494Z,20.00
2022-09-20T11:05:08.178Z,19.50
2022-09-20T11:07:53.771Z,19.20
2022-09-20T11:10:26.004Z,19.10
2022-09-20T11:13:08.518Z,18.60
2022-09-20T11:15:45.676Z,18.30
2022-09-20T11:18:24.542Z,17.90
2022-09-20T11:21:24.505Z,17.80
2022-09-20T11:24:13.784Z,17.60
2022-09-20T11:26:54.311Z,17.10
2022-09-20T11:29:27.691Z,16.70
2022-09-20T11:32:06.239Z,16.50
2022-09-20T11:34:43.388Z,16.20
2022-09-20T11:37:10.748Z,16.00
2022-09-20T11:39:41.656Z,16.20
2022-09-20T11:42:17.289Z,16.20
2022-09-20T11:44:47.618Z,16.20
2022-09-20T11:47:50.024Z,16.30
2022-09-20T11:50:38.234Z,16.20
2022-09-20T11:53:21.994Z,16.10
2022-09-20T11:56:15.445Z,16.40
2022-09-20T11:58:51.932Z,16.30
2022-09-20T12:01:34.670Z,16.50
2022-09-20T12:04:42.833Z,16.80
2022-09-20T12:07:18.386Z,16.90
2022-09-20T12:09:54.200Z,16.90
2022-09-20T12:12:45.245Z,17.00
2022-09-20T12:15:21.586Z,16.90
2022-09-20T12:17:49.646Z,17.00
2022-09-20T12:20:35.421Z,17.00
2022-09-20T12:23:42.955Z,17.30
2022-09-20T12:26:38.028Z,17.30
2022-09-20T12:29:32.973Z,17.30
2022-09-20T12:32:03.449Z,17.50
2022-09-20T12:34:37.442Z,17.40
2022-09-20T12:37:07.888Z,17.30
2022-09-20T12:39:38.189Z,17.00
2022-09-20T12:42:11.606Z,17.00
2022-09-20T12:45:15.551Z,17.00
2022-09-20T12:47:53.334Z,17.10
2022-09-20T12:50:41.362Z,16.90
2022-09-20T12:53:15.239Z,16.80
2022-09-20T12:56:07.776Z,16.90
2022-09-20T12:58:55.143Z,16.90
2022-09-20T13:01:22.533Z,17.30
2022-09-20T13:03:50.702Z,17.60
2022-09-20T13:06:19.133Z,18.00
2022-09-20T13:09:01.637Z,18.40
2022-09-20T13:11:56.903Z,18.50
2022-09-20T13:14:31.275Z,18.30
2022-09-20T13:17:04.631Z,18.20
2022-09-20T13:19:38.362Z,18.50
2022-09-20T13:22:17.629Z,18.40
2022-09-20T13:24:48.082Z,18.50
2022-09-20T13:27:28.900Z,18.50
2022-09-20T13:30:28.366Z,18.60
2022-09-20T13:32:55.857Z,18.40
2022-09-20T13:35:32.484Z,18.50
2022-09-20T13:38:04.948Z,18.60
2022-09-20T13:40:35.450Z,18.50
2022-09-20T13:43:23.011Z,18.70
2022-09-20T13:46:15.982Z,18.50
2022-09-20T13:48:47.320Z,18.30
2022-09-20T13:51:26.614Z,18.40
2022-09-20T13:53:54.604Z,18.50
2022-09-20T13:56:23.439Z,18.60
2022-09-20T13:58:51.475Z,18.50
2022-09-20T14:01:33.710Z,18.30
2022-09-20T14:04:08.047Z,18.20
2022-09-20T14:06:36.211Z,18.30
2022-09-20T14:09:10.800Z,18.00
2022-09-20T14:11:40.051Z,18.10
2022-09-20T14:14:19.862Z,17.80
2022-09-20T14:16:50.532Z,17.80
2022-09-20T14:19:20.877Z,17.80
2022-09-20T14:21:49.307Z,17.90
2022-09-20T14:24:17.458Z,17.90
2022-09-20T14:27:20.922Z,17.70
2022-09-20T14:29:52.725Z,17.60
2022-09-20T14:32:20.260Z,17.30
2022-09-20T14:34:56.606Z,17.50
2022-09-20T14:37:42.653Z,17.80
2022-09-20T14:40:29.965Z,17.90
2022-09-20T14:43:05.767Z,17.90
2022-09-20T14:45:34.471Z,17.80
2022-09-20T14:48:26.387Z,17.60
2022-09-20T14:51:16.100Z,17.30
2022-09-20T14:54:13.235Z,17.00
2022-09-20T14:56:49.478Z,17.00
2022-09-20T14:59:20.780Z,16.90
2022-09-20T15:01:59.452Z,16.90
2022-09-20T15:04:31.636Z,17.20
2022-09-20T15:07:04.521Z,17.40
2022-09-20T15:09:32.792Z,17.60
2022-09-20T15:12:06.170Z,17.30
2022-09-20T15:14:37.567Z,17.20
2022-09-20T15:17:06.027Z,16.80
2022-09-20T15:19:34.403Z,16.40
2022-09-20T15:22:01.982Z,16.20
2022-09-20T15:24:37.439Z,15.90
2022-09-20T15:27:10.910Z,15.80
2022-09-20T15:29:38.221Z,15.60
2022-09-20T15:32:05.848Z,15.40
2022-09-20T15:34:33.138Z,15.30
2022-09-20T15:37:00.479Z,15.10
2022-09-20T15:39:27.950Z,14.90
2022-09-20T15:41:55.265Z,14.80
2022-09-20T15:44:22.485Z,14.80
2022-09-20T15:46:51.357Z,14.70
2022-09-20T15:49:18.735Z,14.60
2022-09-20T15:51:46.336Z,14.50
2022-09-20T15:54:15.010Z,14.50
2022-09-20T15:56:42.310Z,14.50
2022-09-20T15:59:11.627Z,14.40
2022-09-20T16:01:44.523Z,14.30
2022-09-20T16:04:21.136Z,14.30
2022-09-20T16:06:50.202Z,14.30
2022-09-20T16:09:18.326Z,14.30
2022-09-20T16:11:47.200Z,14.20
2022-09-20T16:14:15.099Z,14.10
2022-09-20T16:16:42.476Z,14.20
2022-09-20T16:19:23.880Z,14.30
2022-09-20T16:21:58.544Z,14.40
2022-09-20T16:24:29.004Z,14.50
2022-09-20T16:26:57.438Z,14.60
2022-09-20T16:29:25.877Z,14.60
2022-09-20T16:31:54.388Z,14.60
2022-09-20T16:34:29.625Z,14.50
2022-09-20T16:37:01.129Z,14.40
2022-09-20T16:39:30.344Z,14.30
2022-09-20T16:42:04.595Z,14.20
2022-09-20T16:44:45.750Z,14.10
2022-09-20T16:47:22.050Z,14.20
2022-09-20T16:49:50.517Z,14.10
2022-09-20T16:52:17.906Z,14.10
2022-09-20T16:54:46.660Z,14.10
2022-09-20T16:57:14.469Z,14.00
2022-09-20T16:59:42.199Z,14.00
2022-09-20T17:02:12.269Z,13.90
2022-09-20T17:04:39.861Z,14.00
2022-09-20T17:07:07.581Z,13.80
2022-09-20T17:09:34.915Z,13.80
2022-09-20T17:12:04.286Z,13.70
2022-09-20T17:14:31.579Z,13.50
2022-09-20T17:16:58.833Z,13.40
2022-09-20T17:19:26.610Z,13.40
2022-09-20T17:21:53.902Z,13.30
2022-09-20T17:24:22.609Z,13.10
2022-09-20T17:26:51.593Z,13.10
2022-09-20T17:29:20.016Z,13.00
2022-09-20T17:31:54.950Z,12.90
2022-09-20T17:34:24.625Z,12.80
2022-09-20T17:36:54.072Z,12.60
2022-09-20T17:39:21.319Z,12.50
2022-09-20T17:41:50.565Z,12.50
2022-09-20T17:44:19.299Z,12.50
2022-09-20T17:46:49.499Z,12.50
2022-09-20T17:49:39.050Z,12.50
2022-09-20T17:52:08.007Z,12.50
2022-09-20T17:54:35.250Z,12.40
2022-09-20T17:57:02.613Z,12.40
2022-09-20T17:59:29.882Z,12.30
2022-09-20T18:01:57.155Z,12.30
2022-09-20T18:04:25.061Z,12.20
2022-09-20T18:06:54.100Z,12.20
2022-09-20T18:09:25.721Z,12.20
2022-09-20T18:11:54.755Z,12.10
2022-09-20T18:14:31.373Z,12.00
2022-09-20T18:17:01.362Z,11.90
2022-09-20T18:19:33.454Z,11.90
2022-09-20T18:22:01.952Z,11.70
2022-09-20T18:24:30.211Z,11.60
2022-09-20T18:26:57.697Z,11.40
2022-09-20T18:29:26.027Z,11.20
2022-09-20T18:31:54.511Z,11.00
2022-09-20T18:34:23.739Z,10.80
2022-09-20T18:36:53.477Z,10.60
2022-09-20T18:39:25.327Z,10.50
2022-09-20T18:41:53.517Z,10.30
2022-09-20T18:44:22.235Z,10.20
2022-09-20T18:46:51.476Z,10.10
2022-09-20T18:49:20.557Z,10.00
2022-09-20T18:51:48.757Z,9.90
2022-09-20T18:54:16.782Z,9.80
2022-09-20T18:56:46.144Z,9.80
2022-09-20T18:59:25.279Z,9.70
2022-09-20T19:02:04.315Z,9.80
2022-09-20T19:05:13.961Z,9.70
2022-09-20T19:07:41.252Z,9.60
2022-09-20T19:10:45.535Z,9.50
2022-09-20T19:13:38.920Z,9.50
2022-09-20T19:16:12.091Z,9.50
2022-09-20T19:18:59.647Z,9.40
2022-09-20T19:22:03.678Z,9.30
2022-09-20T19:24:50.044Z,9.30
2022-09-20T19:27:17.508Z,9.20
2022-09-20T19:29:45.160Z,9.10
2022-09-20T19:32:21.604Z,9.10
2022-09-20T19:35:01.415Z,9.10
2022-09-20T19:37:54.090Z,9.20
2022-09-20T19:40:35.593Z,9.20
2022-09-20T19:43:45.198Z,9.20
2022-09-20T19:47:09.497Z,9.20
2022-09-20T19:50:02.785Z,9.20
2022-09-20T19:52:30.956Z,9.20
2022-09-20T19:54:58.520Z,9.10
2022-09-20T19:57:39.646Z,9.10
2022-09-20T20:00:10.126Z,9.00
2022-09-20T20:02:37.685Z,8.90
2022-09-20T20:05:05.677Z,8.90
2022-09-20T20:08:07.876Z,8.80
2022-09-20T20:11:11.873Z,8.80
2022-09-20T20:14:03.781Z,8.70
2022-09-20T20:16:52.297Z,8.70
2022-09-20T20:19:49.211Z,8.70
2022-09-20T20:22:38.402Z,8.70
2022-09-20T20:25:16.009Z,8.60
2022-09-20T20:27:43.314Z,8.60
2022-09-20T20:30:11.132Z,8.60
2022-09-20T20:32:38.407Z,8.50
2022-09-20T20:35:06.387Z,8.50
2022-09-20T20:37:35.020Z,8.50
2022-09-20T20:40:02.502Z,8.40
2022-09-20T20:42:29.811Z,8.40
2022-09-20T20:44:58.108Z,8.40
2022-09-20T20:47:25.581Z,8.40
2022-09-20T20:49:55.009Z,8.40
2022-09-20T20:52:22.222Z,8.60
2022-09-20T20:54:49.593Z,8.80
2022-09-20T20:57:18.859Z,9.00
2022-09-20T20:59:46.170Z,9.00
2022-09-20T21:02:13.659Z,9.10
2022-09-20T21:04:41.106Z,9.00
2022-09-20T21:07:08.408Z,8.90
2022-09-20T21:09:35.924Z,8.80
2022-09-20T21:12:03.305Z,8.60
2022-09-20T21:14:31.900Z,8.60
2022-09-20T21:16:59.207Z,8.50
2022-09-20T21:19:26.494Z,8.50
2022-09-20T21:21:53.742Z,8.50
2022-09-20T21:24:21.097Z,8.60
2022-09-20T21:26:48.509Z,8.60
2022-09-20T21:29:16.616Z,8.60
2022-09-20T21:31:45.708Z,8.60
2022-09-20T21:34:17.070Z,8.70
2022-09-20T21:36:44.686Z,8.80
2022-09-20T21:39:12.729Z,8.80
2022-09-20T21:41:41.671Z,8.80
2022-09-20T21:44:12.289Z,8.80
2022-09-20T21:46:41.872Z,8.90
2022-09-20T21:49:11.121Z,8.90
2022-09-20T21:51:41.324Z,9.00
2022-09-20T21:54:09.443Z,9.00
2022-09-20T21:56:41.196Z,9.00
2022-09-20T21:59:09.371Z,9.00
2022-09-20T22:01:39.221Z,8.90
2022-09-20T22:04:11.737Z,8.90
2022-09-20T22:06:43.806Z,8.80
2022-09-20T22:09:16.125Z,8.70
2022-09-20T22:11:45.767Z,8.70
2022-09-20T22:14:15.057Z,8.70
2022-09-20T22:16:43.776Z,8.60
2022-09-20T22:19:13.279Z,8.60
2022-09-20T22:21:43.564Z,8.60
2022-09-20T22:24:12.237Z,8.50
2022-09-20T22:26:43.584Z,8.50
2022-09-20T22:29:11.138Z,8.50
2022-09-20T22:31:45.418Z,8.50
2022-09-20T22:34:20.977Z,8.50
2022-09-20T22:36:48.882Z,8.50
2022-09-20T22:39:17.074Z,8.50
2022-09-20T22:41:47.651Z,8.50
2022-09-20T22:44:15.004Z,8.40
2022-09-20T22:46:42.259Z,8.40
2022-09-20T22:49:09.833Z,8.30
2022-09-20T22:51:37.836Z,8.20
2022-09-20T22:54:07.559Z,8.10
2022-09-20T22:56:36.204Z,8.10
2022-09-20T22:59:09.243Z,8.10
2022-09-20T23:01:45.374Z,8.10
2022-09-20T23:04:15.681Z,8.00
2022-09-20T23:06:46.912Z,8.00
2022-09-20T23:09:16.566Z,8.10
2022-09-20T23:11:44.483Z,8.00
2022-09-20T23:14:17.909Z,7.90
2022-09-20T23:16:45.721Z,7.90
2022-09-20T23:19:13.805Z,7.90
2022-09-20T23:21:45.130Z,7.80
2022-09-20T23:24:14.698Z,7.80
2022-09-20T23:26:43.461Z,7.70
2022-09-20T23:29:16.218Z,7.70
2022-09-20T23:31:46.666Z,7.80
2022-09-20T23:34:15.414Z,7.90
2022-09-20T23:36:43.193Z,7.80
2022-09-20T23:39:11.627Z,7.80
2022-09-20T23:41:39.014Z,7.80
2022-09-20T23:44:07.337Z,7.70
2022-09-20T23:46:37.209Z,7.60
2022-09-20T23:49:06.502Z,7.60
2022-09-20T23:51:35.304Z,7.60
2022-09-20T23:54:02.803Z,7.60
2022-09-20T23:56:30.546Z,7.60
2022-09-20T23:58:57.831Z,7.60
